sensor_id;sensor_type;location;lat;lon;timestamp;temperature;humidity
45435;DHT22;31183;47.404;8.500;2023-07-24T00:00:28;23.00;82.50
45435;DHT22;31183;47.404;8.500;2023-07-24T00:02:54;23.00;82.50
45435;DHT22;31183;47.404;8.500;2023-07-24T00:05:22;23.00;82.50
45435;DHT22;31183;47.404;8.500;2023-07-24T00:07:49;23.10;82.90
45435;DHT22;31183;47.404;8.500;2023-07-24T00:10:15;22.90;83.40
45435;DHT22;31183;47.404;8.500;2023-07-24T00:12:42;22.90;84.00
45435;DHT22;31183;47.404;8.500;2023-07-24T00:15:09;22.80;83.60
45435;DHT22;31183;47.404;8.500;2023-07-24T00:17:36;22.90;83.40
45435;DHT22;31183;47.404;8.500;2023-07-24T00:20:02;23.00;83.20
45435;DHT22;31183;47.404;8.500;2023-07-24T00:22:29;23.00;83.10
45435;DHT22;31183;47.404;8.500;2023-07-24T00:24:56;23.00;82.80
45435;DHT22;31183;47.404;8.500;2023-07-24T00:27:22;23.00;82.80
45435;DHT22;31183;47.404;8.500;2023-07-24T00:29:50;23.00;82.80
45435;DHT22;31183;47.404;8.500;2023-07-24T00:32:16;22.90;83.40
45435;DHT22;31183;47.404;8.500;2023-07-24T00:34:43;22.90;83.50
45435;DHT22;31183;47.404;8.500;2023-07-24T00:37:09;23.00;84.60
45435;DHT22;31183;47.404;8.500;2023-07-24T00:39:36;23.00;85.90
45435;DHT22;31183;47.404;8.500;2023-07-24T00:42:03;22.90;87.10
45435;DHT22;31183;47.404;8.500;2023-07-24T00:44:29;22.90;88.00
45435;DHT22;31183;47.404;8.500;2023-07-24T00:46:56;22.80;88.20
45435;DHT22;31183;47.404;8.500;2023-07-24T00:49:23;22.70;88.40
45435;DHT22;31183;47.404;8.500;2023-07-24T00:51:51;22.70;88.80
45435;DHT22;31183;47.404;8.500;2023-07-24T00:54:19;22.70;89.10
45435;DHT22;31183;47.404;8.500;2023-07-24T00:56:48;22.60;88.70
45435;DHT22;31183;47.404;8.500;2023-07-24T00:59:15;22.60;88.60
45435;DHT22;31183;47.404;8.500;2023-07-24T01:01:42;22.50;89.90
45435;DHT22;31183;47.404;8.500;2023-07-24T01:04:09;22.30;91.00
45435;DHT22;31183;47.404;8.500;2023-07-24T01:06:36;22.10;91.50
45435;DHT22;31183;47.404;8.500;2023-07-24T01:09:02;22.00;91.30
45435;DHT22;31183;47.404;8.500;2023-07-24T01:11:47;22.00;91.10
45435;DHT22;31183;47.404;8.500;2023-07-24T01:14:21;22.10;90.90
45435;DHT22;31183;47.404;8.500;2023-07-24T01:16:49;22.00;90.90
45435;DHT22;31183;47.404;8.500;2023-07-24T01:27:08;22.20;90.80
45435;DHT22;31183;47.404;8.500;2023-07-24T01:29:35;22.20;90.90
45435;DHT22;31183;47.404;8.500;2023-07-24T01:32:02;22.20;90.80
45435;DHT22;31183;47.404;8.500;2023-07-24T01:34:28;22.20;90.50
45435;DHT22;31183;47.404;8.500;2023-07-24T01:36:55;22.30;90.40
45435;DHT22;31183;47.404;8.500;2023-07-24T01:39:22;22.20;90.30
45435;DHT22;31183;47.404;8.500;2023-07-24T01:41:49;22.30;90.50
45435;DHT22;31183;47.404;8.500;2023-07-24T01:44:16;22.30;90.60
45435;DHT22;31183;47.404;8.500;2023-07-24T01:46:42;22.30;90.60
45435;DHT22;31183;47.404;8.500;2023-07-24T01:49:09;22.30;90.70
45435;DHT22;31183;47.404;8.500;2023-07-24T01:51:36;22.30;90.70
45435;DHT22;31183;47.404;8.500;2023-07-24T01:54:02;22.30;90.70
45435;DHT22;31183;47.404;8.500;2023-07-24T01:56:29;22.30;90.80
45435;DHT22;31183;47.404;8.500;2023-07-24T01:58:56;22.30;91.00
45435;DHT22;31183;47.404;8.500;2023-07-24T02:01:23;22.30;91.10
45435;DHT22;31183;47.404;8.500;2023-07-24T02:03:49;22.30;91.30
45435;DHT22;31183;47.404;8.500;2023-07-24T02:06:16;22.30;91.50
45435;DHT22;31183;47.404;8.500;2023-07-24T02:08:43;22.20;92.00
45435;DHT22;31183;47.404;8.500;2023-07-24T02:11:15;22.20;92.00
45435;DHT22;31183;47.404;8.500;2023-07-24T02:13:46;22.20;92.20
45435;DHT22;31183;47.404;8.500;2023-07-24T02:16:13;22.20;91.90
45435;DHT22;31183;47.404;8.500;2023-07-24T02:18:42;22.20;91.90
45435;DHT22;31183;47.404;8.500;2023-07-24T02:21:09;22.20;91.80
45435;DHT22;31183;47.404;8.500;2023-07-24T02:23:35;22.20;91.70
45435;DHT22;31183;47.404;8.500;2023-07-24T02:26:02;22.20;91.70
45435;DHT22;31183;47.404;8.500;2023-07-24T02:28:29;22.20;91.70
45435;DHT22;31183;47.404;8.500;2023-07-24T02:30:55;22.10;91.90
45435;DHT22;31183;47.404;8.500;2023-07-24T02:33:23;22.00;92.20
45435;DHT22;31183;47.404;8.500;2023-07-24T02:35:51;22.00;92.20
45435;DHT22;31183;47.404;8.500;2023-07-24T02:38:18;22.00;92.90
45435;DHT22;31183;47.404;8.500;2023-07-24T02:40:45;21.80;93.20
45435;DHT22;31183;47.404;8.500;2023-07-24T02:43:12;21.70;93.60
45435;DHT22;31183;47.404;8.500;2023-07-24T02:45:39;21.60;93.50
45435;DHT22;31183;47.404;8.500;2023-07-24T02:48:06;21.70;93.10
45435;DHT22;31183;47.404;8.500;2023-07-24T02:50:33;21.70;93.40
45435;DHT22;31183;47.404;8.500;2023-07-24T02:53:00;21.60;93.60
45435;DHT22;31183;47.404;8.500;2023-07-24T02:55:27;21.60;93.70
45435;DHT22;31183;47.404;8.500;2023-07-24T02:57:53;21.70;93.40
45435;DHT22;31183;47.404;8.500;2023-07-24T03:00:20;21.80;93.10
45435;DHT22;31183;47.404;8.500;2023-07-24T03:02:46;21.90;92.90
45435;DHT22;31183;47.404;8.500;2023-07-24T03:05:13;21.90;92.90
45435;DHT22;31183;47.404;8.500;2023-07-24T03:07:40;21.90;92.90
45435;DHT22;31183;47.404;8.500;2023-07-24T03:10:07;21.80;92.90
45435;DHT22;31183;47.404;8.500;2023-07-24T03:12:34;21.80;92.90
45435;DHT22;31183;47.404;8.500;2023-07-24T03:15:01;21.80;92.80
45435;DHT22;31183;47.404;8.500;2023-07-24T03:17:27;21.80;92.90
45435;DHT22;31183;47.404;8.500;2023-07-24T03:19:54;21.70;92.90
45435;DHT22;31183;47.404;8.500;2023-07-24T03:22:21;21.70;92.90
45435;DHT22;31183;47.404;8.500;2023-07-24T03:24:48;21.70;93.00
45435;DHT22;31183;47.404;8.500;2023-07-24T03:27:15;21.70;93.00
45435;DHT22;31183;47.404;8.500;2023-07-24T03:29:41;21.70;93.00
45435;DHT22;31183;47.404;8.500;2023-07-24T03:32:08;21.70;93.10
45435;DHT22;31183;47.404;8.500;2023-07-24T03:34:34;21.70;93.10
45435;DHT22;31183;47.404;8.500;2023-07-24T03:37:01;21.70;93.20
45435;DHT22;31183;47.404;8.500;2023-07-24T03:39:28;21.70;93.30
45435;DHT22;31183;47.404;8.500;2023-07-24T03:41:55;21.70;93.20
45435;DHT22;31183;47.404;8.500;2023-07-24T03:44:22;21.60;93.30
45435;DHT22;31183;47.404;8.500;2023-07-24T03:46:48;21.70;93.30
45435;DHT22;31183;47.404;8.500;2023-07-24T03:49:15;21.70;93.20
45435;DHT22;31183;47.404;8.500;2023-07-24T03:51:42;21.70;93.20
45435;DHT22;31183;47.404;8.500;2023-07-24T03:54:08;21.70;93.20
45435;DHT22;31183;47.404;8.500;2023-07-24T03:56:35;21.70;93.20
45435;DHT22;31183;47.404;8.500;2023-07-24T03:59:01;21.70;93.20
45435;DHT22;31183;47.404;8.500;2023-07-24T04:01:28;21.70;93.20
45435;DHT22;31183;47.404;8.500;2023-07-24T04:03:55;21.70;93.20
45435;DHT22;31183;47.404;8.500;2023-07-24T04:06:21;21.70;93.20
45435;DHT22;31183;47.404;8.500;2023-07-24T04:08:48;21.70;93.30
45435;DHT22;31183;47.404;8.500;2023-07-24T04:11:15;21.70;93.20
45435;DHT22;31183;47.404;8.500;2023-07-24T04:13:41;21.70;93.40
45435;DHT22;31183;47.404;8.500;2023-07-24T04:16:08;21.70;93.80
45435;DHT22;31183;47.404;8.500;2023-07-24T04:18:34;21.50;94.00
45435;DHT22;31183;47.404;8.500;2023-07-24T04:21:01;21.60;94.10
45435;DHT22;31183;47.404;8.500;2023-07-24T04:23:28;21.60;94.70
45435;DHT22;31183;47.404;8.500;2023-07-24T04:25:54;21.40;95.10
45435;DHT22;31183;47.404;8.500;2023-07-24T04:28:21;21.40;95.60
45435;DHT22;31183;47.404;8.500;2023-07-24T04:30:47;21.40;95.80
45435;DHT22;31183;47.404;8.500;2023-07-24T04:33:14;21.40;95.50
45435;DHT22;31183;47.404;8.500;2023-07-24T04:35:41;21.40;96.40
45435;DHT22;31183;47.404;8.500;2023-07-24T04:38:08;21.40;95.80
45435;DHT22;31183;47.404;8.500;2023-07-24T04:40:34;21.50;96.80
45435;DHT22;31183;47.404;8.500;2023-07-24T04:43:01;21.30;97.10
45435;DHT22;31183;47.404;8.500;2023-07-24T04:45:28;21.20;99.00
45435;DHT22;31183;47.404;8.500;2023-07-24T04:47:55;21.20;98.40
45435;DHT22;31183;47.404;8.500;2023-07-24T04:50:21;20.90;99.90
45435;DHT22;31183;47.404;8.500;2023-07-24T04:52:48;20.50;99.90
45435;DHT22;31183;47.404;8.500;2023-07-24T04:55:14;20.30;99.90
45435;DHT22;31183;47.404;8.500;2023-07-24T04:57:41;20.20;99.90
45435;DHT22;31183;47.404;8.500;2023-07-24T05:00:08;20.10;99.90
45435;DHT22;31183;47.404;8.500;2023-07-24T05:02:35;20.00;99.90
45435;DHT22;31183;47.404;8.500;2023-07-24T05:05:02;19.90;99.90
45435;DHT22;31183;47.404;8.500;2023-07-24T05:07:28;19.70;99.90
45435;DHT22;31183;47.404;8.500;2023-07-24T05:09:55;19.70;99.90
45435;DHT22;31183;47.404;8.500;2023-07-24T05:12:22;19.60;99.90
45435;DHT22;31183;47.404;8.500;2023-07-24T05:14:49;19.60;99.90
45435;DHT22;31183;47.404;8.500;2023-07-24T05:17:15;19.50;99.90
45435;DHT22;31183;47.404;8.500;2023-07-24T05:19:42;19.50;99.90
45435;DHT22;31183;47.404;8.500;2023-07-24T05:22:08;19.50;99.90
45435;DHT22;31183;47.404;8.500;2023-07-24T05:24:37;19.50;99.90
45435;DHT22;31183;47.404;8.500;2023-07-24T05:27:05;19.60;99.90
45435;DHT22;31183;47.404;8.500;2023-07-24T05:29:32;19.80;99.90
45435;DHT22;31183;47.404;8.500;2023-07-24T05:31:58;19.80;99.90
45435;DHT22;31183;47.404;8.500;2023-07-24T05:34:26;19.80;99.90
45435;DHT22;31183;47.404;8.500;2023-07-24T05:36:52;19.90;99.90
45435;DHT22;31183;47.404;8.500;2023-07-24T05:39:19;20.10;99.90
45435;DHT22;31183;47.404;8.500;2023-07-24T05:41:47;20.30;99.90
45435;DHT22;31183;47.404;8.500;2023-07-24T05:44:14;20.50;99.90
45435;DHT22;31183;47.404;8.500;2023-07-24T05:46:41;20.60;99.90
45435;DHT22;31183;47.404;8.500;2023-07-24T05:49:08;20.60;99.90
45435;DHT22;31183;47.404;8.500;2023-07-24T05:51:34;20.70;99.90
45435;DHT22;31183;47.404;8.500;2023-07-24T05:54:01;20.70;99.90
45435;DHT22;31183;47.404;8.500;2023-07-24T05:56:27;20.60;99.90
45435;DHT22;31183;47.404;8.500;2023-07-24T05:58:55;20.60;99.90
45435;DHT22;31183;47.404;8.500;2023-07-24T06:01:21;20.50;99.90
45435;DHT22;31183;47.404;8.500;2023-07-24T06:03:48;20.50;99.90
45435;DHT22;31183;47.404;8.500;2023-07-24T06:06:15;20.60;99.90
45435;DHT22;31183;47.404;8.500;2023-07-24T06:08:41;20.60;99.90
45435;DHT22;31183;47.404;8.500;2023-07-24T06:11:08;20.70;99.90
45435;DHT22;31183;47.404;8.500;2023-07-24T06:13:35;20.90;99.90
45435;DHT22;31183;47.404;8.500;2023-07-24T06:16:01;21.00;99.90
45435;DHT22;31183;47.404;8.500;2023-07-24T06:18:28;21.10;99.90
45435;DHT22;31183;47.404;8.500;2023-07-24T06:20:55;21.20;99.90
45435;DHT22;31183;47.404;8.500;2023-07-24T06:23:21;21.20;99.90
45435;DHT22;31183;47.404;8.500;2023-07-24T06:25:48;21.10;99.90
45435;DHT22;31183;47.404;8.500;2023-07-24T06:28:15;20.90;99.90
45435;DHT22;31183;47.404;8.500;2023-07-24T06:30:41;20.80;99.90
45435;DHT22;31183;47.404;8.500;2023-07-24T06:33:09;20.60;99.90
45435;DHT22;31183;47.404;8.500;2023-07-24T06:35:35;20.60;99.90
45435;DHT22;31183;47.404;8.500;2023-07-24T06:38:02;20.50;99.90
45435;DHT22;31183;47.404;8.500;2023-07-24T06:40:29;20.50;99.90
45435;DHT22;31183;47.404;8.500;2023-07-24T06:42:55;20.50;99.90
45435;DHT22;31183;47.404;8.500;2023-07-24T06:45:22;20.50;99.90
45435;DHT22;31183;47.404;8.500;2023-07-24T06:47:49;20.50;99.90
45435;DHT22;31183;47.404;8.500;2023-07-24T06:50:15;20.60;99.90
45435;DHT22;31183;47.404;8.500;2023-07-24T06:52:42;20.70;99.90
45435;DHT22;31183;47.404;8.500;2023-07-24T06:55:09;20.70;99.90
45435;DHT22;31183;47.404;8.500;2023-07-24T06:57:35;20.70;99.90
45435;DHT22;31183;47.404;8.500;2023-07-24T07:00:02;20.70;99.90
45435;DHT22;31183;47.404;8.500;2023-07-24T07:02:29;20.70;99.90
45435;DHT22;31183;47.404;8.500;2023-07-24T07:04:55;20.90;99.90
45435;DHT22;31183;47.404;8.500;2023-07-24T07:07:22;20.90;99.90
45435;DHT22;31183;47.404;8.500;2023-07-24T07:09:49;21.00;99.90
45435;DHT22;31183;47.404;8.500;2023-07-24T07:12:15;21.10;99.90
45435;DHT22;31183;47.404;8.500;2023-07-24T07:14:42;21.10;99.90
45435;DHT22;31183;47.404;8.500;2023-07-24T07:17:09;21.10;99.90
45435;DHT22;31183;47.404;8.500;2023-07-24T07:19:35;21.10;99.90
45435;DHT22;31183;47.404;8.500;2023-07-24T07:22:02;21.10;99.90
45435;DHT22;31183;47.404;8.500;2023-07-24T07:24:29;21.10;99.90
45435;DHT22;31183;47.404;8.500;2023-07-24T07:26:56;21.20;99.90
45435;DHT22;31183;47.404;8.500;2023-07-24T07:29:23;21.30;99.90
45435;DHT22;31183;47.404;8.500;2023-07-24T07:31:52;21.40;99.90
45435;DHT22;31183;47.404;8.500;2023-07-24T07:34:18;21.40;99.90
45435;DHT22;31183;47.404;8.500;2023-07-24T07:36:45;21.50;99.90
45435;DHT22;31183;47.404;8.500;2023-07-24T07:39:12;21.40;99.90
45435;DHT22;31183;47.404;8.500;2023-07-24T07:41:38;21.40;99.90
45435;DHT22;31183;47.404;8.500;2023-07-24T07:44:05;21.40;99.90
45435;DHT22;31183;47.404;8.500;2023-07-24T07:46:32;21.40;99.90
45435;DHT22;31183;47.404;8.500;2023-07-24T07:48:59;21.40;99.90
45435;DHT22;31183;47.404;8.500;2023-07-24T07:51:26;21.30;99.90
45435;DHT22;31183;47.404;8.500;2023-07-24T07:53:53;21.30;99.90
45435;DHT22;31183;47.404;8.500;2023-07-24T07:56:20;21.20;99.90
45435;DHT22;31183;47.404;8.500;2023-07-24T07:58:47;21.20;99.90
45435;DHT22;31183;47.404;8.500;2023-07-24T08:01:13;21.20;99.90
45435;DHT22;31183;47.404;8.500;2023-07-24T08:03:40;21.30;99.90
45435;DHT22;31183;47.404;8.500;2023-07-24T08:06:07;21.40;99.90
45435;DHT22;31183;47.404;8.500;2023-07-24T08:08:33;21.50;99.90
45435;DHT22;31183;47.404;8.500;2023-07-24T08:11:07;21.60;99.90
45435;DHT22;31183;47.404;8.500;2023-07-24T08:13:34;21.60;99.90
45435;DHT22;31183;47.404;8.500;2023-07-24T08:16:00;21.60;99.90
45435;DHT22;31183;47.404;8.500;2023-07-24T08:18:32;21.60;99.90
45435;DHT22;31183;47.404;8.500;2023-07-24T08:20:58;21.50;99.90
45435;DHT22;31183;47.404;8.500;2023-07-24T08:23:25;21.50;99.90
45435;DHT22;31183;47.404;8.500;2023-07-24T08:25:55;21.60;99.90
45435;DHT22;31183;47.404;8.500;2023-07-24T08:28:22;21.60;99.90
45435;DHT22;31183;47.404;8.500;2023-07-24T08:30:59;21.70;99.90
45435;DHT22;31183;47.404;8.500;2023-07-24T08:33:27;21.80;99.90
45435;DHT22;31183;47.404;8.500;2023-07-24T08:36:07;22.00;99.90
45435;DHT22;31183;47.404;8.500;2023-07-24T08:38:35;22.10;99.90
45435;DHT22;31183;47.404;8.500;2023-07-24T08:41:09;22.20;99.90
45435;DHT22;31183;47.404;8.500;2023-07-24T08:43:38;22.40;99.90
45435;DHT22;31183;47.404;8.500;2023-07-24T08:46:06;22.60;99.90
45435;DHT22;31183;47.404;8.500;2023-07-24T08:48:38;22.80;99.90
45435;DHT22;31183;47.404;8.500;2023-07-24T08:51:06;23.00;99.90
45435;DHT22;31183;47.404;8.500;2023-07-24T08:53:34;23.20;99.90
45435;DHT22;31183;47.404;8.500;2023-07-24T08:56:03;23.20;99.90
45435;DHT22;31183;47.404;8.500;2023-07-24T08:58:31;23.40;99.90
45435;DHT22;31183;47.404;8.500;2023-07-24T09:00:59;23.60;99.90
45435;DHT22;31183;47.404;8.500;2023-07-24T09:03:26;23.90;99.90
45435;DHT22;31183;47.404;8.500;2023-07-24T09:05:53;24.10;99.90
45435;DHT22;31183;47.404;8.500;2023-07-24T09:08:34;24.30;99.90
45435;DHT22;31183;47.404;8.500;2023-07-24T09:11:02;24.60;99.90
45435;DHT22;31183;47.404;8.500;2023-07-24T09:13:29;24.70;99.90
45435;DHT22;31183;47.404;8.500;2023-07-24T09:15:57;24.60;99.90
45435;DHT22;31183;47.404;8.500;2023-07-24T09:18:23;24.50;99.90
45435;DHT22;31183;47.404;8.500;2023-07-24T09:20:50;24.30;99.90
45435;DHT22;31183;47.404;8.500;2023-07-24T09:23:28;24.20;99.90
45435;DHT22;31183;47.404;8.500;2023-07-24T09:25:54;24.30;99.90
45435;DHT22;31183;47.404;8.500;2023-07-24T09:28:21;24.20;99.90
45435;DHT22;31183;47.404;8.500;2023-07-24T09:30:55;24.20;99.90
45435;DHT22;31183;47.404;8.500;2023-07-24T09:33:23;24.20;99.90
45435;DHT22;31183;47.404;8.500;2023-07-24T09:36:04;24.20;99.90
45435;DHT22;31183;47.404;8.500;2023-07-24T09:38:31;24.10;99.90
45435;DHT22;31183;47.404;8.500;2023-07-24T09:40:57;23.90;99.90
45435;DHT22;31183;47.404;8.500;2023-07-24T09:43:27;23.80;99.90
45435;DHT22;31183;47.404;8.500;2023-07-24T09:46:06;23.70;99.90
45435;DHT22;31183;47.404;8.500;2023-07-24T09:48:34;23.60;99.90
45435;DHT22;31183;47.404;8.500;2023-07-24T09:51:04;23.60;99.90
45435;DHT22;31183;47.404;8.500;2023-07-24T09:53:43;23.50;99.90
45435;DHT22;31183;47.404;8.500;2023-07-24T09:56:11;23.40;99.90
45435;DHT22;31183;47.404;8.500;2023-07-24T09:58:39;23.40;99.90
45435;DHT22;31183;47.404;8.500;2023-07-24T10:01:08;23.30;99.90
45435;DHT22;31183;47.404;8.500;2023-07-24T10:03:39;23.30;99.90
45435;DHT22;31183;47.404;8.500;2023-07-24T10:06:09;23.30;99.90
45435;DHT22;31183;47.404;8.500;2023-07-24T10:08:39;23.20;99.90
45435;DHT22;31183;47.404;8.500;2023-07-24T10:11:09;23.20;99.90
45435;DHT22;31183;47.404;8.500;2023-07-24T10:13:38;23.10;99.90
45435;DHT22;31183;47.404;8.500;2023-07-24T10:16:05;23.10;99.90
45435;DHT22;31183;47.404;8.500;2023-07-24T10:18:34;23.10;99.90
45435;DHT22;31183;47.404;8.500;2023-07-24T10:21:06;23.20;99.90
45435;DHT22;31183;47.404;8.500;2023-07-24T10:23:40;23.30;99.90
45435;DHT22;31183;47.404;8.500;2023-07-24T10:26:08;23.40;99.90
45435;DHT22;31183;47.404;8.500;2023-07-24T10:28:39;23.50;99.90
45435;DHT22;31183;47.404;8.500;2023-07-24T10:31:19;23.50;99.90
45435;DHT22;31183;47.404;8.500;2023-07-24T10:33:48;23.60;99.90
45435;DHT22;31183;47.404;8.500;2023-07-24T10:36:18;23.50;99.90
45435;DHT22;31183;47.404;8.500;2023-07-24T10:38:47;23.40;99.90
45435;DHT22;31183;47.404;8.500;2023-07-24T10:41:13;23.20;99.90
45435;DHT22;31183;47.404;8.500;2023-07-24T10:43:50;23.10;99.90
45435;DHT22;31183;47.404;8.500;2023-07-24T10:46:19;23.10;99.90
45435;DHT22;31183;47.404;8.500;2023-07-24T10:48:51;23.20;99.90
45435;DHT22;31183;47.404;8.500;2023-07-24T10:51:17;23.10;99.90
45435;DHT22;31183;47.404;8.500;2023-07-24T10:53:49;23.00;99.90
45435;DHT22;31183;47.404;8.500;2023-07-24T10:56:16;23.00;99.90
45435;DHT22;31183;47.404;8.500;2023-07-24T10:58:43;23.10;99.90
45435;DHT22;31183;47.404;8.500;2023-07-24T11:01:10;22.90;99.90
45435;DHT22;31183;47.404;8.500;2023-07-24T11:03:40;22.80;99.90
45435;DHT22;31183;47.404;8.500;2023-07-24T11:06:20;22.80;99.90
45435;DHT22;31183;47.404;8.500;2023-07-24T11:08:52;22.30;99.90
45435;DHT22;31183;47.404;8.500;2023-07-24T11:11:19;22.10;99.90
45435;DHT22;31183;47.404;8.500;2023-07-24T11:13:46;22.20;99.90
45435;DHT22;31183;47.404;8.500;2023-07-24T11:16:13;22.30;99.90
45435;DHT22;31183;47.404;8.500;2023-07-24T11:18:46;22.50;99.90
45435;DHT22;31183;47.404;8.500;2023-07-24T11:21:22;22.60;99.90
45435;DHT22;31183;47.404;8.500;2023-07-24T11:23:50;22.60;99.90
45435;DHT22;31183;47.404;8.500;2023-07-24T11:26:19;22.60;99.90
45435;DHT22;31183;47.404;8.500;2023-07-24T11:28:47;22.70;99.90
45435;DHT22;31183;47.404;8.500;2023-07-24T11:31:13;22.70;99.90
45435;DHT22;31183;47.404;8.500;2023-07-24T11:33:42;22.50;99.90
45435;DHT22;31183;47.404;8.500;2023-07-24T11:36:09;22.40;99.90
45435;DHT22;31183;47.404;8.500;2023-07-24T11:38:36;22.50;99.90
45435;DHT22;31183;47.404;8.500;2023-07-24T11:41:05;22.60;99.90
45435;DHT22;31183;47.404;8.500;2023-07-24T11:43:32;22.50;99.90
45435;DHT22;31183;47.404;8.500;2023-07-24T11:45:59;22.40;99.90
45435;DHT22;31183;47.404;8.500;2023-07-24T11:48:25;22.30;99.90
45435;DHT22;31183;47.404;8.500;2023-07-24T11:50:54;22.20;99.90
45435;DHT22;31183;47.404;8.500;2023-07-24T11:53:28;22.10;99.90
45435;DHT22;31183;47.404;8.500;2023-07-24T11:55:59;22.10;99.90
45435;DHT22;31183;47.404;8.500;2023-07-24T11:58:31;22.00;99.90
45435;DHT22;31183;47.404;8.500;2023-07-24T12:00:57;22.10;99.90
45435;DHT22;31183;47.404;8.500;2023-07-24T12:03:26;22.10;99.90
45435;DHT22;31183;47.404;8.500;2023-07-24T12:05:53;22.10;99.90
45435;DHT22;31183;47.404;8.500;2023-07-24T12:08:21;22.10;99.90
45435;DHT22;31183;47.404;8.500;2023-07-24T12:10:50;22.00;99.90
45435;DHT22;31183;47.404;8.500;2023-07-24T12:13:16;22.00;99.90
45435;DHT22;31183;47.404;8.500;2023-07-24T12:15:47;22.10;99.90
45435;DHT22;31183;47.404;8.500;2023-07-24T12:18:15;22.20;99.90
45435;DHT22;31183;47.404;8.500;2023-07-24T12:20:41;22.30;99.90
45435;DHT22;31183;47.404;8.500;2023-07-24T12:23:08;22.30;99.90
45435;DHT22;31183;47.404;8.500;2023-07-24T12:25:35;22.20;99.90
45435;DHT22;31183;47.404;8.500;2023-07-24T12:28:01;22.30;99.90
45435;DHT22;31183;47.404;8.500;2023-07-24T12:30:28;22.30;99.90
45435;DHT22;31183;47.404;8.500;2023-07-24T12:32:55;22.30;99.90
45435;DHT22;31183;47.404;8.500;2023-07-24T12:35:22;22.30;99.90
45435;DHT22;31183;47.404;8.500;2023-07-24T12:37:48;22.30;99.90
45435;DHT22;31183;47.404;8.500;2023-07-24T12:40:15;22.40;99.90
45435;DHT22;31183;47.404;8.500;2023-07-24T12:42:41;22.30;99.90
45435;DHT22;31183;47.404;8.500;2023-07-24T12:45:08;22.30;99.90
45435;DHT22;31183;47.404;8.500;2023-07-24T12:47:35;22.30;99.90
45435;DHT22;31183;47.404;8.500;2023-07-24T12:50:02;22.30;99.90
45435;DHT22;31183;47.404;8.500;2023-07-24T12:52:33;22.40;99.90
45435;DHT22;31183;47.404;8.500;2023-07-24T12:55:00;22.30;99.90
45435;DHT22;31183;47.404;8.500;2023-07-24T12:57:28;22.30;99.90
45435;DHT22;31183;47.404;8.500;2023-07-24T12:59:55;22.30;99.90
45435;DHT22;31183;47.404;8.500;2023-07-24T13:02:22;22.30;99.90
45435;DHT22;31183;47.404;8.500;2023-07-24T13:04:48;22.30;99.90
45435;DHT22;31183;47.404;8.500;2023-07-24T13:07:16;22.40;99.90
45435;DHT22;31183;47.404;8.500;2023-07-24T13:09:42;22.40;99.90
45435;DHT22;31183;47.404;8.500;2023-07-24T13:12:09;22.40;99.90
45435;DHT22;31183;47.404;8.500;2023-07-24T13:14:36;22.40;99.90
45435;DHT22;31183;47.404;8.500;2023-07-24T13:17:08;22.50;99.90
45435;DHT22;31183;47.404;8.500;2023-07-24T13:19:35;22.50;99.90
45435;DHT22;31183;47.404;8.500;2023-07-24T13:22:01;22.50;99.90
45435;DHT22;31183;47.404;8.500;2023-07-24T13:24:28;22.60;99.90
45435;DHT22;31183;47.404;8.500;2023-07-24T13:26:55;22.60;99.90
45435;DHT22;31183;47.404;8.500;2023-07-24T13:29:22;22.60;99.90
45435;DHT22;31183;47.404;8.500;2023-07-24T13:31:52;22.60;99.90
45435;DHT22;31183;47.404;8.500;2023-07-24T13:34:19;22.70;99.90
45435;DHT22;31183;47.404;8.500;2023-07-24T13:36:46;22.70;99.90
45435;DHT22;31183;47.404;8.500;2023-07-24T13:39:13;22.70;99.90
45435;DHT22;31183;47.404;8.500;2023-07-24T13:41:40;22.70;99.90
45435;DHT22;31183;47.404;8.500;2023-07-24T13:44:07;22.70;99.90
45435;DHT22;31183;47.404;8.500;2023-07-24T13:46:34;22.70;99.90
45435;DHT22;31183;47.404;8.500;2023-07-24T13:49:04;22.70;99.90
45435;DHT22;31183;47.404;8.500;2023-07-24T13:51:31;22.70;99.90
45435;DHT22;31183;47.404;8.500;2023-07-24T13:53:58;22.70;99.90
45435;DHT22;31183;47.404;8.500;2023-07-24T13:56:28;22.70;99.90
45435;DHT22;31183;47.404;8.500;2023-07-24T13:58:56;22.60;99.90
45435;DHT22;31183;47.404;8.500;2023-07-24T14:01:23;22.70;99.90
45435;DHT22;31183;47.404;8.500;2023-07-24T14:03:49;22.70;99.90
45435;DHT22;31183;47.404;8.500;2023-07-24T14:06:16;22.60;99.90
45435;DHT22;31183;47.404;8.500;2023-07-24T14:08:44;22.60;99.90
45435;DHT22;31183;47.404;8.500;2023-07-24T14:11:10;22.60;99.90
45435;DHT22;31183;47.404;8.500;2023-07-24T14:13:37;22.60;99.90
45435;DHT22;31183;47.404;8.500;2023-07-24T14:16:04;22.70;99.90
45435;DHT22;31183;47.404;8.500;2023-07-24T14:18:31;22.70;99.90
45435;DHT22;31183;47.404;8.500;2023-07-24T14:20:57;22.70;99.90
45435;DHT22;31183;47.404;8.500;2023-07-24T14:23:25;22.80;99.90
45435;DHT22;31183;47.404;8.500;2023-07-24T14:25:52;22.90;99.90
45435;DHT22;31183;47.404;8.500;2023-07-24T14:28:19;22.90;99.90
45435;DHT22;31183;47.404;8.500;2023-07-24T14:30:45;22.90;99.90
45435;DHT22;31183;47.404;8.500;2023-07-24T14:33:12;22.90;99.90
45435;DHT22;31183;47.404;8.500;2023-07-24T14:35:38;22.90;99.90
45435;DHT22;31183;47.404;8.500;2023-07-24T14:38:05;22.90;99.90
45435;DHT22;31183;47.404;8.500;2023-07-24T14:40:32;22.80;99.90
45435;DHT22;31183;47.404;8.500;2023-07-24T14:42:59;22.70;99.90
45435;DHT22;31183;47.404;8.500;2023-07-24T14:45:25;22.60;99.90
45435;DHT22;31183;47.404;8.500;2023-07-24T14:47:52;22.60;99.90
45435;DHT22;31183;47.404;8.500;2023-07-24T14:50:19;22.70;99.90
45435;DHT22;31183;47.404;8.500;2023-07-24T14:52:46;22.70;99.90
45435;DHT22;31183;47.404;8.500;2023-07-24T14:55:13;22.60;99.90
45435;DHT22;31183;47.404;8.500;2023-07-24T14:57:41;22.60;99.90
45435;DHT22;31183;47.404;8.500;2023-07-24T15:00:08;22.60;99.90
45435;DHT22;31183;47.404;8.500;2023-07-24T15:02:35;22.60;99.90
45435;DHT22;31183;47.404;8.500;2023-07-24T15:05:01;22.60;99.90
45435;DHT22;31183;47.404;8.500;2023-07-24T15:07:28;22.70;99.90
45435;DHT22;31183;47.404;8.500;2023-07-24T15:09:55;22.80;99.90
45435;DHT22;31183;47.404;8.500;2023-07-24T15:12:22;22.70;99.90
45435;DHT22;31183;47.404;8.500;2023-07-24T15:14:49;22.60;99.90
45435;DHT22;31183;47.404;8.500;2023-07-24T15:17:16;22.60;99.90
45435;DHT22;31183;47.404;8.500;2023-07-24T15:19:44;22.70;99.90
45435;DHT22;31183;47.404;8.500;2023-07-24T15:22:11;22.60;99.90
45435;DHT22;31183;47.404;8.500;2023-07-24T15:24:38;22.60;99.90
45435;DHT22;31183;47.404;8.500;2023-07-24T15:27:05;22.40;99.90
45435;DHT22;31183;47.404;8.500;2023-07-24T15:29:36;22.30;99.90
45435;DHT22;31183;47.404;8.500;2023-07-24T15:32:03;22.30;99.90
45435;DHT22;31183;47.404;8.500;2023-07-24T15:34:29;22.30;99.90
45435;DHT22;31183;47.404;8.500;2023-07-24T15:36:56;22.30;99.90
45435;DHT22;31183;47.404;8.500;2023-07-24T15:39:23;22.40;99.90